PWSweather.com
Personal Weather Stations
Station Observations
BLACKWELL
Blackwell, AlfretonGB DE55

BlackwellAlfretonGB DE55

Lat: 53.12076, Lon: -1.354978

Elevation: 410

Station Type: Vantage Pro

High Low Average
Temperature 48.4°F9.1°C 37.2°F2.9°C 42.9°F6.1°C
Dew Point 46.4°F8.0°C 35.4°F1.9°C 39.2°F4.0°C
Winds 6.0 mph 9.7 kmh Calm Calm 4.0 mph SW6.4 kmh SW
Wind Gusts 17.0 mph27.4 kmh 2.0 mph3.2 kmh 10.0 mph16.1 kmh
Humidity 95% 76% 87%
Pressure 29.86 in1011.2 mb 29.37 in994.6 mb -
Precipitation 0.39 in9.9 mm - -
Hour Temp Dew Point Humidity Winds Wind Gusts Pressure Precip Precip Rate Daily Precip Total
12:44 AM 43.7°F6.5°C 39.7°F4.3°C 86% 4.0 mph SW6.4 kmh SW 14.0 mph22.5 kmh 29.86 in1011.2 mb 0.00 in0.0 mm 0.00 in0.0 mm 0.00 in0.0 mm
01:44 AM 44.2°F6.8°C 40.8°F4.9°C 88% 4.0 mph SSW6.4 kmh SSW 11.0 mph17.7 kmh 29.80 in1009.1 mb 0.00 in0.0 mm 0.00 in0.0 mm 0.00 in0.0 mm
02:44 AM 45.7°F7.6°C 41.9°F5.5°C 87% 4.0 mph WSW6.4 kmh WSW 13.0 mph20.9 kmh 29.74 in1007.1 mb 0.01 in0.3 mm 0.00 in0.0 mm 0.01 in0.3 mm
03:44 AM 45.7°F7.6°C 42.6°F5.9°C 89% 5.0 mph SW8.0 kmh SW 12.0 mph19.3 kmh 29.69 in1005.4 mb 0.00 in0.0 mm 0.00 in0.0 mm 0.01 in0.3 mm
04:44 AM 46.2°F7.9°C 43.3°F6.3°C 90% 5.0 mph WSW8.0 kmh WSW 16.0 mph25.7 kmh 29.62 in1003.0 mb 0.00 in0.0 mm 0.00 in0.0 mm 0.01 in0.3 mm
05:44 AM 46.4°F8.0°C 44.4°F6.9°C 93% 4.0 mph WSW6.4 kmh WSW 9.0 mph14.5 kmh 29.56 in1001.0 mb 0.01 in0.3 mm 0.00 in0.0 mm 0.02 in0.5 mm
06:44 AM 47.1°F8.4°C 45.1°F7.3°C 93% 6.0 mph WSW9.7 kmh WSW 17.0 mph27.4 kmh 29.52 in999.7 mb 0.01 in0.3 mm 0.00 in0.0 mm 0.02 in0.5 mm
07:44 AM 47.7°F8.7°C 45.7°F7.6°C 93% 5.0 mph WSW8.0 kmh WSW 16.0 mph25.7 kmh 29.47 in998.0 mb 0.01 in0.3 mm 0.00 in0.0 mm 0.03 in0.8 mm
08:44 AM 48.4°F9.1°C 46.4°F8.0°C 93% 4.0 mph SW6.4 kmh SW 10.0 mph16.1 kmh 29.47 in998.0 mb 0.03 in0.8 mm 0.00 in0.0 mm 0.07 in1.8 mm
09:44 AM 40.3°F4.6°C 38.1°F3.4°C 92% Calm Calm 4.0 mph6.4 kmh 29.49 in998.6 mb 0.14 in3.6 mm 0.00 in0.0 mm 0.21 in5.3 mm
10:44 AM 39.0°F3.9°C 37.2°F2.9°C 93% Calm Calm 4.0 mph6.4 kmh 29.48 in998.3 mb 0.03 in0.8 mm 0.00 in0.0 mm 0.24 in6.1 mm
11:44 AM 37.2°F2.9°C 35.6°F2.0°C 94% Calm Calm 2.0 mph3.2 kmh 29.48 in998.3 mb 0.10 in2.5 mm 0.00 in0.0 mm 0.35 in8.9 mm
12:44 PM 37.6°F3.1°C 36.3°F2.4°C 95% 1.0 mph SW1.6 kmh SW 4.0 mph6.4 kmh 29.48 in998.3 mb 0.03 in0.8 mm 0.00 in0.0 mm 0.38 in9.7 mm
01:44 PM 37.8°F3.2°C 36.3°F2.4°C 95% 1.0 mph WSW1.6 kmh WSW 3.0 mph4.8 kmh 29.47 in998.0 mb 0.00 in0.0 mm 0.00 in0.0 mm 0.38 in9.7 mm
02:44 PM 39.6°F4.2°C 37.6°F3.1°C 93% 2.0 mph WSW3.2 kmh WSW 8.0 mph12.9 kmh 29.46 in997.6 mb 0.00 in0.0 mm 0.00 in0.0 mm 0.38 in9.7 mm
03:44 PM 42.8°F6.0°C 38.8°F3.8°C 86% 3.0 mph SW4.8 kmh SW 7.0 mph11.3 kmh 29.45 in997.3 mb 0.00 in0.0 mm 0.00 in0.0 mm 0.38 in9.7 mm
04:44 PM 43.3°F6.3°C 38.8°F3.8°C 84% 4.0 mph WSW6.4 kmh WSW 10.0 mph16.1 kmh 29.44 in997.0 mb 0.00 in0.0 mm 0.00 in0.0 mm 0.38 in9.7 mm
05:44 PM 42.6°F5.9°C 35.6°F2.0°C 76% 3.0 mph SW4.8 kmh SW 12.0 mph19.3 kmh 29.44 in997.0 mb 0.01 in0.3 mm 0.00 in0.0 mm 0.39 in9.9 mm
06:44 PM 40.8°F4.9°C 35.8°F2.1°C 82% 4.0 mph WSW6.4 kmh WSW 11.0 mph17.7 kmh 29.45 in997.3 mb 0.00 in0.0 mm 0.00 in0.0 mm 0.39 in9.9 mm
07:44 PM 41.5°F5.3°C 35.4°F1.9°C 79% 6.0 mph WSW9.7 kmh WSW 14.0 mph22.5 kmh 29.44 in997.0 mb 0.00 in0.0 mm 0.00 in0.0 mm 0.39 in9.9 mm
08:44 PM 42.1°F5.6°C 36.1°F2.3°C 79% 5.0 mph SW8.0 kmh SW 12.0 mph19.3 kmh 29.40 in995.6 mb 0.00 in0.0 mm 0.00 in0.0 mm 0.39 in9.9 mm
09:44 PM 42.4°F5.8°C 36.0°F2.2°C 78% 5.0 mph SW8.0 kmh SW 11.0 mph17.7 kmh 29.38 in994.9 mb 0.00 in0.0 mm 0.00 in0.0 mm 0.39 in9.9 mm
10:44 PM 43.2°F6.2°C 36.7°F2.6°C 78% 6.0 mph SW9.7 kmh SW 15.0 mph24.1 kmh 29.37 in994.6 mb 0.00 in0.0 mm 0.00 in0.0 mm 0.39 in9.9 mm
11:44 PM 43.5°F6.4°C 36.7°F2.6°C 77% 6.0 mph SW9.7 kmh SW 13.0 mph20.9 kmh 29.39 in995.3 mb 0.00 in0.0 mm 0.00 in0.0 mm 0.39 in9.9 mm